Time;durP1;ratioP1;P1;durP2;ratioP2;P2;SDS_P1;SDS_P2;PMS_P1;PMS_P2;Temp;Humidity;BMP_temperature;BMP_pressure;BME280_temperature;BME280_humidity;BME280_pressure;Samples;Min_cycle;Max_cycle;Signal;HPM_P1;HPM_P2
2023/08/22 00:02:11;;;;;;;0.03;0.03;;;;;;;21.53;75.30;97915.69;5065626;28;20120;-70
2023/08/22 00:04:39;;;;;;;0.03;0.03;;;;;;;21.52;75.40;97914.03;5061351;28;20400;-70
2023/08/22 00:07:07;;;;;;;0.00;0.00;;;;;;;21.53;75.66;97904.81;5050036;28;20056;-70
2023/08/22 00:09:36;;;;;;;0.10;0.10;;;;;;;21.68;74.83;97908.75;5066903;28;20098;-71
2023/08/22 00:12:05;;;;;;;0.10;0.10;;;;;;;21.72;74.16;97907.16;5073281;28;20403;-71
2023/08/22 00:14:33;;;;;;;0.10;0.10;;;;;;;21.68;74.63;97906.06;5077769;28;20416;-71
2023/08/22 00:17:01;;;;;;;0.03;0.03;;;;;;;21.62;74.72;97902.44;5082369;28;20037;-70
2023/08/22 00:19:28;;;;;;;0.10;0.10;;;;;;;21.54;75.02;97901.03;5085809;28;20039;-70
2023/08/22 00:21:57;;;;;;;0.05;0.05;;;;;;;21.46;75.56;97889.81;5078095;28;20106;-70
2023/08/22 00:24:25;;;;;;;0.00;0.00;;;;;;;21.25;75.96;97899.66;5078522;28;20051;-70
2023/08/22 00:26:55;;;;;;;0.00;0.00;;;;;;;21.02;77.37;97891.75;5084073;28;20079;-70
2023/08/22 00:29:23;;;;;;;0.05;0.03;;;;;;;20.96;76.84;97892.78;5047465;28;20044;-70
2023/08/22 00:31:51;;;;;;;0.10;0.10;;;;;;;21.17;76.19;97895.47;5073430;28;20473;-70
2023/08/22 00:34:18;;;;;;;0.10;0.10;;;;;;;21.08;77.07;97891.53;5060493;28;20474;-70
2023/08/22 00:36:46;;;;;;;0.08;0.08;;;;;;;21.09;76.63;97889.66;5077009;28;20098;-70
2023/08/22 00:39:14;;;;;;;0.05;0.05;;;;;;;21.09;76.89;97887.75;5041068;28;20053;-70
2023/08/22 00:41:41;;;;;;;0.10;0.10;;;;;;;21.12;76.63;97886.44;5067639;28;20132;-70
2023/08/22 00:44:10;;;;;;;0.10;0.10;;;;;;;20.94;76.98;97884.06;5057224;28;20072;-70
2023/08/22 00:46:39;;;;;;;0.10;0.10;;;;;;;21.01;76.23;97890.09;5078599;28;20052;-70
2023/08/22 00:49:08;;;;;;;0.00;0.00;;;;;;;20.84;77.05;97882.88;5052713;28;20044;-70
2023/08/22 00:51:36;;;;;;;0.00;0.00;;;;;;;20.59;78.29;97870.88;5061342;28;20050;-70
2023/08/22 00:54:04;;;;;;;0.10;0.10;;;;;;;20.76;77.55;97882.50;5041110;28;20140;-70
2023/08/22 00:56:32;;;;;;;0.03;0.03;;;;;;;20.50;78.92;97876.75;5070764;28;20411;-70
2023/08/22 00:59:00;;;;;;;0.10;0.10;;;;;;;20.63;78.00;97864.69;5052546;28;20044;-70
2023/08/22 01:01:29;;;;;;;0.05;0.05;;;;;;;20.68;77.97;97870.19;5063677;28;20048;-70
2023/08/22 01:03:57;;;;;;;0.10;0.10;;;;;;;20.81;77.36;97861.66;5054762;28;20584;-70
2023/08/22 01:06:29;;;;;;;0.10;0.10;;;;;;;20.84;77.66;97857.63;5073086;28;20067;-70
2023/08/22 01:09:02;;;;;;;0.10;0.10;;;;;;;20.92;76.34;97859.06;5047208;28;20049;-70
2023/08/22 01:11:32;;;;;;;0.03;0.03;;;;;;;20.68;77.78;97864.75;5054146;28;20052;-69
2023/08/22 01:14:04;;;;;;;0.10;0.10;;;;;;;20.93;76.47;97864.25;5054066;28;20057;-69
2023/08/22 01:16:33;;;;;;;0.10;0.10;;;;;;;20.78;76.88;97862.16;5062806;28;20084;-69
2023/08/22 01:19:04;;;;;;;0.03;0.03;;;;;;;20.59;77.05;97863.56;5072351;28;20129;-69
2023/08/22 01:21:33;;;;;;;0.03;0.03;;;;;;;20.70;76.95;97856.38;5073557;28;20044;-70
2023/08/22 01:24:05;;;;;;;0.15;0.10;;;;;;;20.63;77.40;97848.44;5079905;22;20045;-70
2023/08/22 01:26:34;;;;;;;0.10;0.10;;;;;;;20.67;77.49;97848.72;5071120;28;20070;-67
2023/08/22 01:29:08;;;;;;;0.10;0.10;;;;;;;20.70;77.04;97848.22;5061949;28;20549;-67
2023/08/22 01:31:42;;;;;;;0.10;0.10;;;;;;;20.85;76.36;97849.25;5047106;28;20560;-67
2023/08/22 01:34:14;;;;;;;0.10;0.10;;;;;;;20.88;76.60;97847.88;5063579;28;20126;-67
2023/08/22 01:36:44;;;;;;;0.03;0.03;;;;;;;20.87;76.02;97855.22;5022762;28;20144;-68
2023/08/22 01:39:13;;;;;;;0.13;0.13;;;;;;;20.88;76.07;97850.59;5049930;28;20128;-67
2023/08/22 01:41:41;;;;;;;0.30;0.00;;;;;;;20.89;75.65;97853.06;5046003;28;20132;-67
2023/08/22 01:44:08;;;;;;;0.00;0.00;;;;;;;20.93;75.83;97849.84;5044177;28;20050;-67
2023/08/22 01:46:36;;;;;;;0.13;0.13;;;;;;;20.93;75.65;97847.97;5052019;28;20045;-67
2023/08/22 01:49:04;;;;;;;0.10;0.10;;;;;;;20.82;75.84;97838.88;5034157;28;20049;-68
2023/08/22 01:51:31;;;;;;;0.10;0.10;;;;;;;20.70;76.36;97840.91;5047085;28;20470;-68
2023/08/22 01:53:59;;;;;;;0.10;0.10;;;;;;;20.65;76.70;97845.47;5031734;28;20137;-67
2023/08/22 01:56:28;;;;;;;0.13;0.13;;;;;;;20.56;76.65;97839.63;5044299;28;20080;-68
2023/08/22 01:58:56;;;;;;;0.05;0.05;;;;;;;20.67;76.34;97835.97;5032729;28;20053;-67
2023/08/22 02:01:24;;;;;;;0.03;0.03;;;;;;;20.77;76.05;97841.53;5046289;28;20103;-67
2023/08/22 02:03:52;;;;;;;0.10;0.10;;;;;;;20.74;76.07;97841.22;5019714;28;20168;-67
2023/08/22 02:06:20;;;;;;;0.10;0.10;;;;;;;20.71;76.21;97845.25;5044720;28;20415;-68
2023/08/22 02:08:48;;;;;;;0.10;0.10;;;;;;;20.71;76.51;97841.72;5029592;28;20495;-68
2023/08/22 02:11:15;;;;;;;0.10;0.10;;;;;;;20.83;76.07;97835.09;5037904;28;20039;-67
2023/08/22 02:13:44;;;;;;;0.08;0.08;;;;;;;20.69;76.33;97838.44;5028299;28;20059;-67
2023/08/22 02:16:12;;;;;;;0.03;0.03;;;;;;;20.77;76.40;97832.56;5016498;28;20115;-68
2023/08/22 02:18:40;;;;;;;0.03;0.03;;;;;;;20.82;76.05;97821.78;5020880;28;20048;-69
2023/08/22 02:21:08;;;;;;;0.13;0.13;;;;;;;20.93;76.11;97828.97;5037531;28;20411;-69
2023/08/22 02:23:35;;;;;;;0.20;0.20;;;;;;;21.10;75.39;97828.84;5016138;28;20545;-69
2023/08/22 02:26:03;;;;;;;0.10;0.10;;;;;;;21.19;75.32;97828.16;5030726;28;20099;-70
2023/08/22 02:28:31;;;;;;;0.05;0.05;;;;;;;21.17;74.54;97819.44;5040985;28;20037;-69
2023/08/22 02:31:02;;;;;;;0.10;0.10;;;;;;;21.09;74.28;97822.59;5036546;28;20037;-69
2023/08/22 02:33:30;;;;;;;0.10;0.10;;;;;;;20.96;75.16;97822.22;5021591;28;20041;-70
2023/08/22 02:36:00;;;;;;;0.10;0.10;;;;;;;20.95;75.43;97823.28;5029431;28;20052;-69
2023/08/22 02:38:28;;;;;;;0.10;0.10;;;;;;;20.92;75.28;97821.88;5049328;28;20037;-69
2023/08/22 02:40:56;;;;;;;0.10;0.10;;;;;;;20.92;75.08;97821.88;5042398;28;20550;-70
2023/08/22 02:43:24;;;;;;;0.13;0.13;;;;;;;20.87;75.67;97821.81;5028397;28;20037;-70
2023/08/22 02:45:51;;;;;;;0.03;0.03;;;;;;;20.98;75.07;97814.59;5042776;28;20041;-70
2023/08/22 02:48:20;;;;;;;0.10;0.10;;;;;;;20.82;75.70;97806.31;5046698;28;20049;-69
2023/08/22 02:50:49;;;;;;;0.13;0.13;;;;;;;20.86;75.22;97802.03;5028342;28;20134;-69
2023/08/22 02:53:17;;;;;;;0.05;0.05;;;;;;;20.89;75.68;97793.34;5035686;28;20280;-68
2023/08/22 02:55:47;;;;;;;0.10;0.10;;;;;;;20.79;76.16;97795.97;5034948;28;20065;-69
2023/08/22 02:58:16;;;;;;;0.10;0.10;;;;;;;20.87;75.74;97787.38;5043147;28;20057;-69
2023/08/22 03:00:46;;;;;;;0.10;0.10;;;;;;;20.95;75.09;97785.28;5020830;28;20487;-69
2023/08/22 03:03:15;;;;;;;0.10;0.10;;;;;;;20.92;75.46;97791.22;5033733;28;20514;-69
2023/08/22 03:05:45;;;;;;;0.10;0.10;;;;;;;20.86;75.74;97791.19;5025440;28;20045;-69
2023/08/22 03:08:13;;;;;;;0.10;0.10;;;;;;;20.91;75.65;97790.41;5046187;28;20037;-69
2023/08/22 03:10:41;;;;;;;0.00;0.00;;;;;;;20.96;75.51;97797.78;5025785;28;20508;-69
2023/08/22 03:13:10;;;;;;;0.03;0.03;;;;;;;20.95;75.88;97791.53;5030634;28;20033;-70
2023/08/22 03:15:38;;;;;;;0.10;0.10;;;;;;;20.99;75.49;97791.81;5021796;28;20041;-69
2023/08/22 03:18:06;;;;;;;0.10;0.10;;;;;;;21.00;75.99;97807.03;5027708;28;20442;-69
2023/08/22 03:20:34;;;;;;;0.10;0.10;;;;;;;21.07;75.19;97796.81;5023830;28;20041;-69
2023/08/22 03:23:04;;;;;;;0.15;0.15;;;;;;;21.01;75.64;97804.06;5022363;28;20048;-69
2023/08/22 03:25:32;;;;;;;0.10;0.10;;;;;;;21.12;75.18;97803.09;5043873;28;20703;-69
2023/08/22 03:28:00;;;;;;;0.10;0.10;;;;;;;21.13;74.94;97801.19;5022471;28;20091;-69
2023/08/22 03:30:28;;;;;;;0.03;0.03;;;;;;;21.07;75.09;97810.38;5020480;28;20068;-69
2023/08/22 03:32:56;;;;;;;0.10;0.10;;;;;;;21.02;75.84;97808.44;5039005;28;20125;-69
2023/08/22 03:35:24;;;;;;;0.03;0.03;;;;;;;21.03;75.47;97811.97;5024059;28;20076;-69
2023/08/22 03:37:52;;;;;;;0.00;0.00;;;;;;;21.03;75.76;97803.81;5031566;28;20514;-69
2023/08/22 03:40:21;;;;;;;0.03;0.03;;;;;;;21.02;75.42;97807.59;5014688;28;20052;-69
2023/08/22 03:42:49;;;;;;;0.10;0.10;;;;;;;21.12;75.18;97803.09;5028506;28;20041;-69
2023/08/22 03:45:17;;;;;;;0.00;0.00;;;;;;;21.10;75.29;97804.41;5022188;28;20534;-69
2023/08/22 03:47:44;;;;;;;0.10;0.10;;;;;;;21.11;75.01;97797.91;5032572;28;20114;-69
2023/08/22 03:50:12;;;;;;;0.00;0.00;;;;;;;21.09;75.14;97798.16;5026271;28;20041;-67
2023/08/22 03:52:40;;;;;;;0.13;0.13;;;;;;;21.13;74.95;97801.19;5030186;28;20110;-67
2023/08/22 03:55:08;;;;;;;0.10;0.10;;;;;;;21.15;75.07;97804.47;5017182;28;20049;-68
2023/08/22 03:57:37;;;;;;;0.10;0.10;;;;;;;21.17;74.73;97791.47;5041898;28;20120;-68
2023/08/22 04:00:07;;;;;;;0.10;0.10;;;;;;;21.21;74.88;97796.16;5042987;28;20051;-68
2023/08/22 04:02:40;;;;;;;0.10;0.10;;;;;;;21.21;74.31;97798.03;5035445;28;20098;-67
2023/08/22 04:05:09;;;;;;;0.03;0.03;;;;;;;21.16;74.62;97789.84;5020834;28;20626;-68
2023/08/22 04:07:36;;;;;;;0.10;0.10;;;;;;;21.15;74.76;97793.63;5026765;28;20500;-67
2023/08/22 04:10:06;;;;;;;0.10;0.10;;;;;;;21.14;74.41;97790.09;5032384;28;20055;-67
2023/08/22 04:12:34;;;;;;;0.10;0.10;;;;;;;21.09;74.60;97795.44;5049471;28;20102;-67
2023/08/22 04:15:03;;;;;;;0.17;0.17;;;;;;;21.05;74.59;97796.25;5027282;28;20512;-68
2023/08/22 04:17:31;;;;;;;0.00;0.00;;;;;;;20.99;75.17;97794.53;5041957;28;20033;-67
2023/08/22 04:19:59;;;;;;;0.10;0.10;;;;;;;20.95;75.36;97798.84;5025086;28;20068;-68
2023/08/22 04:22:27;;;;;;;0.03;0.03;;;;;;;20.92;75.35;97799.34;5028593;28;20048;-67
2023/08/22 04:24:54;;;;;;;0.10;0.10;;;;;;;20.86;75.56;97803.94;5026409;28;20568;-71
2023/08/22 04:27:23;;;;;;;0.10;0.10;;;;;;;20.89;75.49;97801.50;5024181;28;20044;-67
2023/08/22 04:29:51;;;;;;;0.10;0.10;;;;;;;20.87;76.03;97800.09;5024408;28;20049;-67
2023/08/22 04:32:20;;;;;;;0.10;0.10;;;;;;;20.92;75.66;97797.47;5026401;28;20053;-68
2023/08/22 04:34:50;;;;;;;0.13;0.13;;;;;;;20.91;75.53;97795.00;5028761;28;20048;-67
2023/08/22 04:37:18;;;;;;;0.03;0.03;;;;;;;20.82;76.33;97798.19;5030804;28;20056;-70
2023/08/22 04:39:46;;;;;;;0.03;0.03;;;;;;;20.82;76.29;97790.03;5035638;28;20511;-67
2023/08/22 04:42:26;;;;;;;0.10;0.10;;;;;;;20.80;76.23;97797.59;5033730;28;20038;-67
2023/08/22 04:45:01;;;;;;;0.00;0.00;;;;;;;20.82;76.43;97800.06;5034714;28;20579;-70
2023/08/22 04:47:30;;;;;;;0.10;0.10;;;;;;;20.84;76.19;97797.94;5029233;28;20065;-68
2023/08/22 04:49:59;;;;;;;0.10;0.10;;;;;;;20.87;75.97;97797.41;5034719;28;20512;-67
2023/08/22 04:52:27;;;;;;;0.10;0.10;;;;;;;20.86;76.35;97801.22;5031504;28;20033;-67
2023/08/22 04:54:55;;;;;;;0.03;0.03;;;;;;;20.83;76.08;97802.53;5052048;28;20064;-67
2023/08/22 04:57:24;;;;;;;0.15;0.15;;;;;;;20.89;76.20;97798.78;5031440;28;20095;-67
2023/08/22 04:59:54;;;;;;;0.10;0.10;;;;;;;20.88;76.05;97794.44;5047318;28;20048;-67
2023/08/22 05:02:23;;;;;;;0.13;0.13;;;;;;;20.91;76.00;97789.56;5044540;28;20049;-68
2023/08/22 05:04:53;;;;;;;0.10;0.10;;;;;;;20.95;76.07;97798.84;5031928;28;20050;-67
2023/08/22 05:07:21;;;;;;;0.10;0.10;;;;;;;20.91;76.42;97801.25;5035393;28;20140;-68
2023/08/22 05:09:49;;;;;;;0.10;0.10;;;;;;;20.93;76.00;97795.56;5031115;28;20103;-67
2023/08/22 05:12:17;;;;;;;0.10;0.10;;;;;;;20.94;76.45;97795.31;5034137;28;20041;-67
2023/08/22 05:14:45;;;;;;;0.13;0.13;;;;;;;20.93;76.41;97795.56;5030606;28;20045;-67
2023/08/22 05:17:12;;;;;;;0.03;0.03;;;;;;;21.00;75.65;97796.19;5033276;28;20545;-67
2023/08/22 05:19:41;;;;;;;0.10;0.10;;;;;;;20.98;76.32;97796.44;5034993;28;20047;-67
2023/08/22 05:22:09;;;;;;;0.03;0.03;;;;;;;21.03;75.70;97792.97;5033722;28;20055;-67
2023/08/22 05:24:38;;;;;;;0.05;0.05;;;;;;;21.06;75.87;97796.00;5030458;28;20556;-68
2023/08/22 05:27:07;;;;;;;0.00;0.00;;;;;;;21.08;75.99;97801.97;5050607;28;20036;-67
2023/08/22 05:29:34;;;;;;;0.13;0.13;;;;;;;21.08;76.24;97793.81;5029310;28;20072;-67
2023/08/22 05:32:02;;;;;;;0.10;0.10;;;;;;;21.15;76.06;97786.28;5031110;28;20508;-67
2023/08/22 05:34:31;;;;;;;0.10;0.10;;;;;;;21.22;75.43;97792.34;5052925;28;20055;-67
2023/08/22 05:36:58;;;;;;;0.08;0.08;;;;;;;21.25;75.66;97796.47;5030402;28;20047;-67
2023/08/22 05:39:27;;;;;;;0.10;0.10;;;;;;;21.26;75.56;97784.53;5034723;28;20072;-67
2023/08/22 05:41:55;;;;;;;0.20;0.20;;;;;;;21.29;75.45;97789.41;5030250;28;20072;-67
2023/08/22 05:44:24;;;;;;;0.10;0.10;;;;;;;21.33;75.69;97793.28;5034306;28;20033;-67
2023/08/22 05:46:51;;;;;;;0.13;0.13;;;;;;;21.40;75.29;97795.75;5029482;28;20080;-67
2023/08/22 05:49:23;;;;;;;0.00;0.00;;;;;;;21.39;75.64;97796.84;5031759;28;20392;-68
2023/08/22 05:51:54;;;;;;;0.10;0.10;;;;;;;21.47;75.46;97805.34;5034649;28;20139;-68
2023/08/22 05:54:22;;;;;;;0.13;0.13;;;;;;;21.54;75.32;97796.97;5047821;28;20068;-67
2023/08/22 05:56:51;;;;;;;0.17;0.17;;;;;;;21.62;74.86;97801.91;5034589;28;20056;-67
2023/08/22 05:59:19;;;;;;;0.00;0.00;;;;;;;21.71;74.87;97802.25;5032376;28;20081;-67
2023/08/22 06:01:46;;;;;;;0.13;0.13;;;;;;;21.75;74.54;97806.91;5037504;28;20056;-67
2023/08/22 06:04:14;;;;;;;0.03;0.03;;;;;;;21.79;74.35;97802.59;5026052;28;20089;-67
2023/08/22 06:06:42;;;;;;;0.13;0.13;;;;;;;21.91;74.62;97800.47;5020996;28;20098;-69
2023/08/22 06:09:10;;;;;;;0.03;0.03;;;;;;;22.06;73.86;97801.69;5049301;28;20450;-69
2023/08/22 06:11:37;;;;;;;0.10;0.10;;;;;;;22.08;73.63;97799.53;5031664;28;20045;-69
2023/08/22 06:14:07;;;;;;;0.10;0.10;;;;;;;22.21;73.68;97807.25;5032314;28;20072;-69
2023/08/22 06:16:34;;;;;;;0.10;0.10;;;;;;;22.27;73.31;97815.16;5029681;28;20041;-69
2023/08/22 06:19:02;;;;;;;0.10;0.10;;;;;;;22.28;72.98;97815.97;5033609;28;20098;-69
2023/08/22 06:21:30;;;;;;;0.20;0.17;;;;;;;22.34;72.72;97806.75;5050900;28;20116;-69
2023/08/22 06:23:58;;;;;;;0.10;0.10;;;;;;;22.40;72.75;97813.03;5028958;28;20488;-68
2023/08/22 06:26:25;;;;;;;0.20;0.20;;;;;;;22.48;72.28;97815.25;5032603;28;20124;-69
2023/08/22 06:28:53;;;;;;;0.52;0.10;;;;;;;22.48;72.13;97812.53;5020134;28;20419;-69
2023/08/22 06:31:23;;;;;;;0.10;0.10;;;;;;;22.51;72.14;97809.28;5042625;28;20049;-69
2023/08/22 06:33:51;;;;;;;0.13;0.13;;;;;;;22.55;72.17;97813.09;5032820;28;20049;-68
2023/08/22 06:36:19;;;;;;;0.10;0.10;;;;;;;22.58;72.09;97805.22;5049136;28;20065;-69
2023/08/22 06:38:46;;;;;;;0.10;0.10;;;;;;;22.64;72.15;97804.16;5023563;28;20501;-69
2023/08/22 06:41:16;;;;;;;0.10;0.10;;;;;;;22.73;71.65;97803.66;5027954;28;20139;-69
2023/08/22 06:43:44;;;;;;;0.20;0.10;;;;;;;22.79;71.59;97802.59;5047977;28;20040;-69
2023/08/22 06:46:16;;;;;;;0.10;0.10;;;;;;;22.86;71.91;97803.97;5032726;28;20068;-69
2023/08/22 06:48:46;;;;;;;0.10;0.10;;;;;;;22.86;71.77;97803.97;5048216;28;20045;-69
2023/08/22 06:51:15;;;;;;;0.13;0.13;;;;;;;22.84;71.73;97802.63;5032661;28;20060;-69
2023/08/22 06:53:42;;;;;;;0.10;0.10;;;;;;;22.87;71.65;97797.44;5047736;28;20090;-69
2023/08/22 06:56:10;;;;;;;0.10;0.10;;;;;;;23.05;71.57;97801.56;5049741;28;20381;-69
2023/08/22 06:58:38;;;;;;;0.08;0.08;;;;;;;23.24;70.77;97799.16;5046723;28;20041;-69
2023/08/22 07:01:07;;;;;;;0.10;0.10;;;;;;;23.42;70.38;97795.91;5049201;28;20048;-69
2023/08/22 07:03:36;;;;;;;0.10;0.10;;;;;;;23.57;69.91;97795.09;5046154;28;20051;-69
2023/08/22 07:06:06;;;;;;;0.03;0.03;;;;;;;23.61;69.52;97790.75;5047500;28;20495;-69
2023/08/22 07:08:33;;;;;;;0.13;0.13;;;;;;;23.68;69.16;97800.28;5051457;28;20518;-68
2023/08/22 07:11:02;;;;;;;0.10;0.10;;;;;;;23.75;68.98;97797.28;5046267;28;20155;-69
2023/08/22 07:13:30;;;;;;;0.20;0.10;;;;;;;23.89;69.30;97795.59;5037551;28;20532;-69
2023/08/22 07:15:57;;;;;;;0.20;0.20;;;;;;;23.94;68.20;97811.16;5045880;28;20041;-69
2023/08/22 07:18:27;;;;;;;0.10;0.10;;;;;;;24.02;68.24;97807.88;5049585;28;20052;-69
2023/08/22 07:20:55;;;;;;;0.00;0.00;;;;;;;24.10;67.91;97801.84;5049829;28;20047;-69
2023/08/22 07:23:24;;;;;;;0.10;0.10;;;;;;;24.17;67.77;97791.47;5046959;28;20128;-69
2023/08/22 07:25:52;;;;;;;0.00;0.00;;;;;;;24.28;66.88;97795.84;5049225;28;20052;-69
2023/08/22 07:28:19;;;;;;;0.03;0.03;;;;;;;24.37;66.73;97791.44;5039508;28;20041;-69
2023/08/22 07:30:47;;;;;;;0.10;0.10;;;;;;;24.34;66.50;97781.06;5046574;28;20486;-69
2023/08/22 07:33:15;;;;;;;0.10;0.10;;;;;;;24.50;66.76;97790.03;5050372;28;20136;-69
2023/08/22 07:35:45;;;;;;;0.05;0.05;;;;;;;24.64;65.67;97787.50;5047434;28;20061;-69
2023/08/22 07:38:13;;;;;;;0.10;0.10;;;;;;;24.74;65.60;97792.91;5049285;28;20059;-69
2023/08/22 07:40:42;;;;;;;0.03;0.03;;;;;;;24.87;65.72;97795.84;5046386;28;20046;-69
2023/08/22 07:43:10;;;;;;;0.10;0.08;;;;;;;25.05;64.54;97801.78;5048802;28;20048;-69
2023/08/22 07:45:38;;;;;;;0.10;0.10;;;;;;;25.19;63.46;97792.69;5045382;28;20042;-69
2023/08/22 07:48:06;;;;;;;0.03;0.03;;;;;;;25.34;63.48;97797.19;5047708;28;20048;-69
2023/08/22 07:50:34;;;;;;;0.20;0.15;;;;;;;25.51;63.43;97797.63;5050720;28;20398;-69
2023/08/22 07:53:04;;;;;;;0.10;0.10;;;;;;;25.66;63.29;97798.63;5047061;28;20040;-69
2023/08/22 07:55:32;;;;;;;0.20;0.20;;;;;;;25.82;62.81;97797.41;5053431;28;20496;-69
2023/08/22 07:58:01;;;;;;;0.00;0.00;;;;;;;25.96;61.49;97799.16;5048879;28;20048;-69
2023/08/22 08:00:30;;;;;;;0.08;0.08;;;;;;;25.82;62.13;97797.41;5048054;28;20032;-69
2023/08/22 08:02:58;;;;;;;0.00;0.00;;;;;;;25.92;62.84;97795.38;5047892;28;20492;-69
2023/08/22 08:05:26;;;;;;;0.10;0.03;;;;;;;26.00;61.61;97793.09;5045517;28;20120;-69
2023/08/22 08:07:54;;;;;;;0.25;0.10;;;;;;;26.14;61.40;97797.63;5047678;28;20037;-69
2023/08/22 08:10:21;;;;;;;0.10;0.10;;;;;;;26.20;60.57;97787.41;5050891;28;20736;-69
2023/08/22 08:12:50;;;;;;;0.00;0.00;;;;;;;26.37;60.10;97795.22;5050876;28;20045;-69
2023/08/22 08:15:19;;;;;;;0.00;0.00;;;;;;;26.42;59.76;97790.47;5046818;28;20051;-69
2023/08/22 08:17:46;;;;;;;0.10;0.10;;;;;;;26.45;59.21;97787.16;5044578;28;20038;-69
2023/08/22 08:20:14;;;;;;;0.00;0.00;;;;;;;26.61;58.89;97785.84;5049202;28;20051;-70
2023/08/22 08:22:42;;;;;;;0.00;0.00;;;;;;;26.69;58.48;97787.94;5054584;28;20049;-69
2023/08/22 08:25:10;;;;;;;0.00;0.00;;;;;;;26.89;58.44;97786.84;5044143;28;20127;-69
2023/08/22 08:27:39;;;;;;;0.00;0.00;;;;;;;26.94;58.04;97786.00;5054417;28;20530;-69
2023/08/22 08:30:10;;;;;;;0.10;0.10;;;;;;;26.92;57.46;97785.47;5046629;28;20099;-69
2023/08/22 08:32:39;;;;;;;0.10;0.10;;;;;;;27.00;57.20;97776.59;5053688;28;20041;-69
2023/08/22 08:35:07;;;;;;;0.20;0.10;;;;;;;27.06;56.29;97778.16;5052050;28;20049;-69
2023/08/22 08:37:35;;;;;;;0.22;0.10;;;;;;;27.21;56.44;97771.63;5033366;28;20052;-69
2023/08/22 08:40:05;;;;;;;0.03;0.03;;;;;;;27.33;56.30;97778.28;5052426;28;20496;-69
2023/08/22 08:42:35;;;;;;;0.10;0.10;;;;;;;27.49;55.76;97775.31;5049603;28;20504;-69
2023/08/22 08:45:04;;;;;;;0.10;0.10;;;;;;;27.61;54.63;97767.44;5046141;28;20049;-69
2023/08/22 08:47:32;;;;;;;0.00;0.00;;;;;;;27.75;52.65;97782.00;5044310;28;20040;-69
2023/08/22 08:50:04;;;;;;;0.00;0.00;;;;;;;27.80;51.81;97759.16;5047194;28;20076;-69
2023/08/22 08:52:32;;;;;;;0.00;0.00;;;;;;;27.80;51.25;97775.63;5036743;28;20091;-69
2023/08/22 08:55:00;;;;;;;0.17;0.10;;;;;;;27.86;50.26;97772.47;5049832;28;20045;-69
2023/08/22 08:57:28;;;;;;;0.10;0.10;;;;;;;27.88;48.57;97764.75;5049337;28;20044;-69
2023/08/22 08:59:56;;;;;;;0.10;0.10;;;;;;;27.96;48.21;97766.81;5054553;28;20091;-69
2023/08/22 09:02:23;;;;;;;0.17;0.00;;;;;;;27.96;47.98;97766.81;5058533;28;20080;-69
2023/08/22 09:04:51;;;;;;;0.00;0.00;;;;;;;27.97;48.16;97756.63;5057967;28;20484;-69
2023/08/22 09:07:20;;;;;;;0.00;0.00;;;;;;;27.99;47.56;97762.63;5051572;28;20033;-69
2023/08/22 09:09:48;;;;;;;0.05;0.05;;;;;;;28.02;47.36;97760.13;5051045;28;20045;-69
2023/08/22 09:12:15;;;;;;;0.10;0.10;;;;;;;28.09;47.03;97762.44;5053527;28;20076;-69
2023/08/22 09:14:45;;;;;;;0.00;0.00;;;;;;;28.17;47.13;97749.94;5048985;28;20455;-69
2023/08/22 09:17:14;;;;;;;0.10;0.10;;;;;;;28.32;47.24;97768.91;5047831;28;20123;-69
2023/08/22 09:19:42;;;;;;;0.10;0.10;;;;;;;28.36;46.91;97756.16;5044190;28;20080;-69
2023/08/22 09:22:13;;;;;;;0.20;0.05;;;;;;;28.42;47.14;97757.72;5051698;28;20055;-69
2023/08/22 09:24:51;;;;;;;0.03;0.03;;;;;;;28.41;47.14;97764.31;5041500;28;20116;-69
2023/08/22 09:27:21;;;;;;;0.00;0.00;;;;;;;28.47;46.87;97746.59;5042885;28;20127;-69
2023/08/22 09:29:49;;;;;;;0.00;0.00;;;;;;;28.57;46.65;97743.63;5047653;28;20124;-69
2023/08/22 09:32:16;;;;;;;0.00;0.00;;;;;;;28.68;46.78;97756.03;5050491;28;21436;-69
2023/08/22 09:34:53;;;;;;;0.00;0.00;;;;;;;28.90;46.53;97752.56;5053809;28;20045;-69
2023/08/22 09:37:30;;;;;;;0.03;0.03;;;;;;;29.06;45.67;97761.28;5048086;28;20112;-69
2023/08/22 09:39:59;;;;;;;0.00;0.00;;;;;;;29.03;45.82;97746.22;5052002;28;20041;-68
2023/08/22 09:42:29;;;;;;;0.05;0.05;;;;;;;29.08;45.22;97756.28;5041052;28;20045;-69
2023/08/22 09:44:57;;;;;;;0.00;0.00;;;;;;;29.16;45.21;97755.56;5052113;28;20049;-69
2023/08/22 09:47:30;;;;;;;0.00;0.00;;;;;;;29.39;44.54;97757.19;5045041;28;20041;-69
2023/08/22 09:50:00;;;;;;;0.00;0.00;;;;;;;29.56;44.53;97754.59;5051025;28;20041;-69
2023/08/22 09:52:28;;;;;;;0.10;0.10;;;;;;;29.59;44.03;97749.59;5035258;28;20646;-69
2023/08/22 09:54:56;;;;;;;0.10;0.10;;;;;;;29.98;43.37;97735.91;5051052;28;20047;-69
2023/08/22 09:57:26;;;;;;;0.00;0.00;;;;;;;30.10;43.10;97743.56;5048138;28;20485;-69
2023/08/22 09:59:53;;;;;;;0.10;0.10;;;;;;;30.11;43.14;97743.22;5046953;28;20049;-69
2023/08/22 10:02:22;;;;;;;0.00;0.00;;;;;;;30.35;42.62;97739.28;5049200;28;20115;-69
2023/08/22 10:04:50;;;;;;;0.00;0.00;;;;;;;30.54;42.05;97735.16;5048270;28;20045;-69
2023/08/22 10:07:18;;;;;;;0.00;0.00;;;;;;;30.77;41.92;97732.28;5051738;28;20123;-67
2023/08/22 10:09:46;;;;;;;0.00;0.00;;;;;;;30.65;41.77;97730.94;5048481;28;20051;-69
2023/08/22 10:12:15;;;;;;;0.10;0.00;;;;;;;30.22;41.59;97730.81;5050968;28;20563;-69
2023/08/22 10:14:48;;;;;;;0.00;0.00;;;;;;;30.23;41.42;97735.19;5047581;28;20059;-69
2023/08/22 10:17:16;;;;;;;0.08;0.05;;;;;;;30.26;41.66;97731.00;5049864;28;20047;-69
2023/08/22 10:19:44;;;;;;;0.03;0.00;;;;;;;30.26;42.04;97722.72;5055843;28;20045;-69
2023/08/22 10:22:13;;;;;;;0.10;0.10;;;;;;;30.46;41.77;97735.09;5053655;28;20045;-68
2023/08/22 10:24:41;;;;;;;0.05;0.05;;;;;;;30.61;41.64;97737.44;5047356;28;20449;-67
2023/08/22 10:27:12;;;;;;;0.00;0.00;;;;;;;30.61;41.41;97724.47;5052075;28;20072;-67
2023/08/22 10:29:45;;;;;;;0.03;0.03;;;;;;;31.05;40.66;97724.50;5037039;28;20065;-67
2023/08/22 10:32:24;;;;;;;0.00;0.00;;;;;;;31.24;40.41;97734.13;5044192;28;20063;-69
2023/08/22 10:35:05;;;;;;;0.05;0.00;;;;;;;30.91;39.83;97733.75;5040877;28;20446;-69
2023/08/22 10:37:33;;;;;;;0.00;0.00;;;;;;;30.51;40.22;97722.00;5041396;28;20041;-69
2023/08/22 10:40:06;;;;;;;0.00;0.00;;;;;;;30.69;40.65;97728.38;5049325;28;20174;-68
2023/08/22 10:42:36;;;;;;;0.03;0.03;;;;;;;30.96;39.38;97719.78;5038975;28;20054;-69
2023/08/22 10:45:16;;;;;;;0.00;0.00;;;;;;;30.90;39.69;97736.84;5049961;28;20045;-68
2023/08/22 10:47:48;;;;;;;0.10;0.10;;;;;;;30.81;39.52;97720.28;5040041;28;20098;-69
2023/08/22 10:50:16;;;;;;;0.10;0.10;;;;;;;30.57;39.63;97729.00;5041623;28;20160;-69
2023/08/22 10:52:44;;;;;;;0.00;0.00;;;;;;;30.73;39.74;97743.16;5045040;28;20041;-69
2023/08/22 10:55:14;;;;;;;0.00;0.00;;;;;;;30.43;39.75;97732.97;5046103;28;20080;-67
2023/08/22 10:57:42;;;;;;;0.00;0.00;;;;;;;30.63;40.00;97726.88;5046734;28;20443;-67
2023/08/22 11:00:22;;;;;;;0.10;0.10;;;;;;;30.76;39.91;97723.19;5048824;28;20048;-67
2023/08/22 11:02:52;;;;;;;0.00;0.00;;;;;;;30.99;39.12;97732.94;5045798;28;20124;-68
2023/08/22 11:05:20;;;;;;;0.10;0.10;;;;;;;31.29;38.84;97733.13;5051158;28;20040;-68
2023/08/22 11:07:48;;;;;;;0.10;0.05;;;;;;;31.41;37.85;97715.91;5044774;28;20547;-68
2023/08/22 11:10:18;;;;;;;0.00;0.00;;;;;;;31.55;37.97;97722.88;5043249;28;20048;-68
2023/08/22 11:12:46;;;;;;;0.32;0.00;;;;;;;31.57;38.01;97714.25;5039668;28;20493;-68
2023/08/22 11:15:15;;;;;;;0.15;0.10;;;;;;;31.38;38.24;97737.50;5044371;28;20037;-68
2023/08/22 11:17:43;;;;;;;0.00;0.00;;;;;;;30.92;38.86;97734.56;5045312;28;20620;-68
2023/08/22 11:20:13;;;;;;;0.10;0.03;;;;;;;30.80;38.77;97724.19;5049477;28;20555;-68
2023/08/22 11:22:42;;;;;;;0.00;0.00;;;;;;;31.34;37.64;97727.47;5031856;28;20044;-68
2023/08/22 11:25:11;;;;;;;0.00;0.00;;;;;;;31.61;37.32;97720.75;5043601;28;20057;-67
2023/08/22 11:27:40;;;;;;;0.00;0.00;;;;;;;31.71;37.46;97735.03;5050958;28;20475;-68
2023/08/22 11:30:09;;;;;;;0.00;0.00;;;;;;;31.94;36.98;97734.81;5039412;28;20476;-68
2023/08/22 11:32:38;;;;;;;0.00;0.00;;;;;;;32.41;36.79;97728.13;5051634;28;20039;-68
2023/08/22 11:35:08;;;;;;;0.00;0.00;;;;;;;32.22;36.12;97732.44;5051456;28;20056;-68
2023/08/22 11:37:38;;;;;;;0.10;0.10;;;;;;;32.33;36.10;97740.03;5051063;28;20043;-68
2023/08/22 11:40:14;;;;;;;0.10;0.00;;;;;;;32.21;36.95;97734.41;5052309;28;20495;-67
2023/08/22 11:42:42;;;;;;;0.10;0.10;;;;;;;31.29;41.32;97747.72;5051211;28;20044;-67